Eggebeck Air Base ETME

Flugplatz Daten

Name: Eggebeck Air Base

Ident: ETME

Lat: 54,62480164

Long: 9,345999718

Platzhöhe: 65 ft

IataCode:

City:

Metar

2013/05/03 09:00
AGGH 030900Z METMETAR AGGH 030900Z 16003KT 9999 HZ FEW018 FEW019CB 26/25 Q1011

Taf

Gewünschte Webcam nicht vorhanden? Dann fügen Sie eine hinzu. Sie wird dann so schnell wie möglich freigeschaltet
Url: Title: